Time,TemperatureF,DewpointF,PressureIn,WindDirection,WindDirectionDegrees,WindSpeedMPH,WindSpeedGustMPH,Humidity,HourlyPrecipIn,Conditions,Clouds,dailyrainin,SoftwareType,DateUTC
2013-01-20 00:04:00,30.0,28.0,29.89,South,190,0.0,0.0,94,0.00,,,0.01,,2013-01-20 05:04:00,
2013-01-20 00:12:00,30.0,28.0,29.89,South,190,0.0,0.0,94,0.00,,,0.01,,2013-01-20 05:12:00,
2013-01-20 00:23:00,30.0,28.0,29.89,South,190,0.0,0.0,94,0.00,,,0.01,,2013-01-20 05:23:00,
2013-01-20 00:33:00,30.0,28.0,29.88,South,190,0.0,0.0,94,0.00,,,0.01,,2013-01-20 05:33:00,
2013-01-20 00:43:00,30.0,28.0,29.88,South,190,0.0,0.0,94,0.00,,,0.01,,2013-01-20 05:43:00,
2013-01-20 00:53:00,29.0,27.0,29.87,South,190,0.0,0.0,94,0.00,,,0.01,,2013-01-20 05:53:00,
2013-01-20 01:02:00,29.0,27.0,29.87,South,190,0.0,0.0,94,0.00,,,0.01,,2013-01-20 06:02:00,
2013-01-20 01:12:00,29.0,27.0,29.87,South,190,0.0,0.0,94,0.00,,,0.01,,2013-01-20 06:12:00,
2013-01-20 01:22:00,29.0,28.0,29.86,South,190,0.0,0.0,95,0.00,,,0.01,,2013-01-20 06:22:00,
2013-01-20 01:33:00,30.0,29.0,29.86,South,190,0.0,0.0,95,0.00,,,0.01,,2013-01-20 06:33:00,
2013-01-20 01:43:00,30.0,29.0,29.86,South,190,0.0,0.0,95,0.00,,,0.01,,2013-01-20 06:43:00,
2013-01-20 01:52:00,30.0,29.0,29.86,South,190,0.0,0.0,95,0.00,,,0.01,,2013-01-20 06:52:00,
2013-01-20 02:02:00,30.0,29.0,29.85,South,190,0.0,0.0,95,0.00,,,0.01,,2013-01-20 07:02:00,
2013-01-20 02:12:00,30.0,29.0,29.85,South,190,0.0,0.0,95,0.00,,,0.01,,2013-01-20 07:12:00,
2013-01-20 02:22:00,30.0,29.0,29.85,South,190,0.0,0.0,95,0.00,,,0.01,,2013-01-20 07:22:00,
2013-01-20 02:32:00,30.0,29.0,29.84,South,190,0.0,0.0,95,0.00,,,0.01,,2013-01-20 07:32:00,
2013-01-20 02:42:00,30.0,29.0,29.84,South,190,0.0,0.0,95,0.00,,,0.01,,2013-01-20 07:42:00,
2013-01-20 02:52:00,31.0,30.0,29.83,South,190,0.0,0.0,95,0.00,,,0.01,,2013-01-20 07:52:00,
2013-01-20 03:02:00,31.0,30.0,29.82,South,190,0.0,0.0,95,0.00,,,0.01,,2013-01-20 08:02:00,
2013-01-20 03:12:00,31.0,30.0,29.82,South,190,0.0,0.0,95,0.00,,,0.01,,2013-01-20 08:12:00,
2013-01-20 03:22:00,31.0,30.0,29.80,South,190,0.0,0.0,95,0.00,,,0.01,,2013-01-20 08:22:00,
2013-01-20 03:32:00,31.0,30.0,29.78,South,190,0.0,0.0,95,0.00,,,0.01,,2013-01-20 08:32:00,
2013-01-20 03:42:00,31.0,30.0,29.78,South,190,0.0,0.0,95,0.00,,,0.01,,2013-01-20 08:42:00,
2013-01-20 03:52:00,31.0,30.0,29.77,South,190,0.0,0.0,95,0.00,,,0.01,,2013-01-20 08:52:00,
2013-01-20 04:02:00,31.0,30.0,29.75,South,190,0.0,0.0,95,0.00,,,0.01,,2013-01-20 09:02:00,
2013-01-20 04:12:00,31.0,30.0,29.75,South,190,0.0,0.0,95,0.00,,,0.01,,2013-01-20 09:12:00,
2013-01-20 04:22:00,31.0,30.0,29.75,South,190,0.0,0.0,95,0.00,,,0.01,,2013-01-20 09:22:00,
2013-01-20 04:33:00,31.0,30.0,29.74,South,190,0.0,0.0,95,0.00,,,0.01,,2013-01-20 09:33:00,
2013-01-20 04:42:00,31.0,30.0,29.74,South,190,0.0,0.0,95,0.00,,,0.01,,2013-01-20 09:42:00,
2013-01-20 04:52:00,30.0,29.0,29.73,South,190,0.0,0.0,95,0.00,,,0.01,,2013-01-20 09:52:00,
2013-01-20 05:03:00,30.0,28.0,29.72,South,190,0.0,0.0,94,0.00,,,0.01,,2013-01-20 10:03:00,
2013-01-20 05:12:00,30.0,28.0,29.72,South,190,0.0,0.0,94,0.00,,,0.01,,2013-01-20 10:12:00,
2013-01-20 05:23:00,29.0,28.0,29.71,South,190,0.0,0.0,95,0.00,,,0.01,,2013-01-20 10:23:00,
2013-01-20 05:32:00,30.0,29.0,29.70,South,190,0.0,0.0,95,0.00,,,0.01,,2013-01-20 10:32:00,
2013-01-20 05:42:00,30.0,29.0,29.70,South,190,0.0,0.0,95,0.00,,,0.01,,2013-01-20 10:42:00,
2013-01-20 05:52:00,30.0,29.0,29.70,South,190,0.0,0.0,95,0.00,,,0.01,,2013-01-20 10:52:00,
2013-01-20 06:03:00,30.0,29.0,29.68,South,190,0.0,0.0,95,0.00,,,0.01,,2013-01-20 11:03:00,
2013-01-20 06:12:00,30.0,29.0,29.68,South,190,0.0,0.0,95,0.00,,,0.01,,2013-01-20 11:12:00,
2013-01-20 06:22:00,30.0,29.0,29.67,South,190,0.0,0.0,95,0.00,,,0.01,,2013-01-20 11:22:00,
2013-01-20 06:33:00,30.0,29.0,29.65,South,190,0.0,0.0,96,0.00,,,0.01,,2013-01-20 11:33:00,
2013-01-20 06:43:00,30.0,29.0,29.65,South,190,0.0,0.0,96,0.00,,,0.01,,2013-01-20 11:43:00,
2013-01-20 06:53:00,30.0,29.0,29.65,South,190,0.0,0.0,96,0.00,,,0.01,,2013-01-20 11:53:00,
2013-01-20 07:03:00,29.0,28.0,29.64,South,190,0.0,0.0,95,0.00,,,0.01,,2013-01-20 12:03:00,
2013-01-20 07:12:00,29.0,28.0,29.64,South,190,0.0,0.0,95,0.00,,,0.01,,2013-01-20 12:12:00,
2013-01-20 07:23:00,29.0,28.0,29.62,South,190,0.0,0.0,96,0.00,,,0.01,,2013-01-20 12:23:00,
2013-01-20 07:33:00,29.0,28.0,29.60,South,190,0.0,0.0,96,0.00,,,0.01,,2013-01-20 12:33:00,
2013-01-20 07:43:00,29.0,28.0,29.60,South,190,0.0,0.0,96,0.00,,,0.01,,2013-01-20 12:43:00,
2013-01-20 07:53:00,29.0,28.0,29.59,South,190,0.0,0.0,96,0.00,,,0.01,,2013-01-20 12:53:00,
2013-01-20 08:03:00,29.0,28.0,29.57,South,190,0.0,0.0,96,0.00,,,0.01,,2013-01-20 13:03:00,
2013-01-20 08:12:00,29.0,28.0,29.57,South,190,0.0,0.0,96,0.00,,,0.01,,2013-01-20 13:12:00,
2013-01-20 08:23:00,33.0,32.0,29.57,South,190,0.0,0.0,96,0.00,,,0.01,,2013-01-20 13:23:00,
2013-01-20 08:33:00,39.0,38.0,29.55,South,190,1.0,9.0,97,0.00,,,0.01,,2013-01-20 13:33:00,
2013-01-20 08:43:00,39.0,38.0,29.55,South,190,1.0,9.0,97,0.00,,,0.01,,2013-01-20 13:43:00,
2013-01-20 08:52:00,41.0,40.0,29.54,South,190,5.0,13.0,97,0.00,,,0.01,,2013-01-20 13:52:00,
2013-01-20 09:03:00,44.0,40.0,29.53,South,190,10.0,18.0,86,0.00,,,0.01,,2013-01-20 14:03:00,
2013-01-20 09:12:00,44.0,40.0,29.53,South,190,10.0,18.0,86,0.00,,,0.01,,2013-01-20 14:12:00,
2013-01-20 09:23:00,44.0,40.0,29.52,South,190,5.0,16.0,85,0.00,,,0.01,,2013-01-20 14:23:00,
2013-01-20 09:33:00,45.0,40.0,29.51,South,190,7.0,23.0,83,0.00,,,0.01,,2013-01-20 14:33:00,
2013-01-20 09:43:00,45.0,40.0,29.51,South,190,7.0,23.0,83,0.00,,,0.01,,2013-01-20 14:43:00,
2013-01-20 09:53:00,45.0,40.0,29.51,South,190,9.0,25.0,81,0.00,,,0.01,,2013-01-20 14:53:00,
2013-01-20 10:04:00,45.0,39.0,29.50,South,190,13.0,23.0,80,0.00,,,0.01,,2013-01-20 15:04:00,
2013-01-20 10:12:00,45.0,39.0,29.50,South,190,13.0,23.0,80,0.00,,,0.01,,2013-01-20 15:12:00,
2013-01-20 10:23:00,45.0,39.0,29.50,South,190,9.0,23.0,79,0.00,,,0.01,,2013-01-20 15:23:00,
2013-01-20 10:33:00,46.0,40.0,29.49,South,190,13.0,26.0,78,0.00,,,0.01,,2013-01-20 15:33:00,
2013-01-20 10:43:00,46.0,40.0,29.49,South,190,13.0,26.0,78,0.00,,,0.01,,2013-01-20 15:43:00,
2013-01-20 10:53:00,46.0,40.0,29.48,South,190,12.0,24.0,78,0.00,,,0.01,,2013-01-20 15:53:00,
2013-01-20 11:03:00,46.0,39.0,29.47,South,190,11.0,23.0,76,0.00,,,0.01,,2013-01-20 16:03:00,
2013-01-20 11:12:00,46.0,39.0,29.47,South,190,11.0,23.0,76,0.00,,,0.01,,2013-01-20 16:12:00,
2013-01-20 11:23:00,46.0,39.0,29.46,South,190,17.0,26.0,75,0.00,,,0.01,,2013-01-20 16:23:00,
2013-01-20 11:33:00,46.0,38.0,29.43,South,190,15.0,28.0,73,0.01,,,0.02,,2013-01-20 16:33:00,
2013-01-20 11:43:00,46.0,38.0,29.43,South,190,15.0,28.0,73,0.01,,,0.02,,2013-01-20 16:43:00,
2013-01-20 11:52:00,46.0,37.0,29.43,South,190,14.0,25.0,72,0.01,,,0.02,,2013-01-20 16:52:00,
2013-01-20 12:03:00,46.0,37.0,29.43,South,190,14.0,23.0,72,0.01,,,0.02,,2013-01-20 17:03:00,
2013-01-20 12:13:00,46.0,37.0,29.43,South,190,14.0,23.0,72,0.01,,,0.02,,2013-01-20 17:13:00,
2013-01-20 12:22:00,46.0,37.0,29.42,South,190,14.0,22.0,71,0.01,,,0.02,,2013-01-20 17:22:00,
2013-01-20 12:33:00,46.0,37.0,29.41,South,190,16.0,30.0,71,0.00,,,0.02,,2013-01-20 17:33:00,
2013-01-20 12:42:00,46.0,37.0,29.41,South,190,16.0,30.0,71,0.00,,,0.02,,2013-01-20 17:42:00,
2013-01-20 12:52:00,45.0,36.0,29.41,South,190,13.0,22.0,71,0.00,,,0.02,,2013-01-20 17:52:00,
2013-01-20 13:03:00,45.0,36.0,29.41,South,190,18.0,29.0,71,0.00,,,0.02,,2013-01-20 18:03:00,
2013-01-20 13:13:00,45.0,36.0,29.41,South,190,18.0,29.0,71,0.00,,,0.02,,2013-01-20 18:13:00,
2013-01-20 13:23:00,45.0,37.0,29.41,South,190,16.0,25.0,72,0.00,,,0.02,,2013-01-20 18:23:00,
2013-01-20 13:33:00,45.0,36.0,29.41,South,190,13.0,22.0,71,0.00,,,0.01,,2013-01-20 18:33:00,
2013-01-20 13:43:00,45.0,36.0,29.41,South,190,13.0,22.0,71,0.00,,,0.01,,2013-01-20 18:43:00,
2013-01-20 13:53:00,46.0,37.0,29.41,South,190,11.0,21.0,71,0.00,,,0.01,,2013-01-20 18:53:00,
2013-01-20 14:03:00,46.0,36.0,29.41,South,190,12.0,23.0,69,0.00,,,0.01,,2013-01-20 19:03:00,
2013-01-20 14:12:00,46.0,36.0,29.41,South,190,12.0,23.0,69,0.00,,,0.01,,2013-01-20 19:12:00,
2013-01-20 14:23:00,46.0,36.0,29.42,South,190,11.0,17.0,69,0.00,,,0.01,,2013-01-20 19:23:00,
2013-01-20 14:33:00,45.0,35.0,29.43,South,190,7.0,14.0,68,0.00,,,0.01,,2013-01-20 19:33:00,
2013-01-20 14:43:00,45.0,35.0,29.43,South,190,7.0,14.0,68,0.00,,,0.01,,2013-01-20 19:43:00,
2013-01-20 14:52:00,45.0,35.0,29.44,South,190,11.0,17.0,67,0.00,,,0.01,,2013-01-20 19:52:00,
2013-01-20 15:03:00,45.0,33.0,29.44,South,190,8.0,15.0,63,0.00,,,0.01,,2013-01-20 20:03:00,
2013-01-20 15:12:00,45.0,33.0,29.44,South,190,8.0,15.0,63,0.00,,,0.01,,2013-01-20 20:12:00,
2013-01-20 15:23:00,45.0,33.0,29.44,South,190,8.0,18.0,62,0.00,,,0.01,,2013-01-20 20:23:00,
2013-01-20 15:33:00,45.0,28.0,29.44,South,190,16.0,28.0,51,0.00,,,0.01,,2013-01-20 20:33:00,
2013-01-20 15:42:00,45.0,28.0,29.44,South,190,16.0,28.0,51,0.00,,,0.01,,2013-01-20 20:42:00,
2013-01-20 15:53:00,45.0,29.0,29.45,South,190,12.0,21.0,53,0.00,,,0.01,,2013-01-20 20:53:00,
2013-01-20 16:04:00,44.0,28.0,29.46,South,190,11.0,22.0,54,0.00,,,0.01,,2013-01-20 21:04:00,
2013-01-20 16:13:00,44.0,28.0,29.46,South,190,11.0,22.0,54,0.00,,,0.01,,2013-01-20 21:13:00,
2013-01-20 16:23:00,44.0,28.0,29.47,South,190,12.0,22.0,54,0.00,,,0.01,,2013-01-20 21:23:00,
2013-01-20 16:33:00,43.0,29.0,29.47,South,190,8.0,19.0,57,0.00,,,0.01,,2013-01-20 21:33:00,
2013-01-20 16:43:00,43.0,29.0,29.47,South,190,8.0,19.0,57,0.00,,,0.01,,2013-01-20 21:43:00,
2013-01-20 16:53:00,43.0,29.0,29.49,South,190,14.0,22.0,57,0.00,,,0.01,,2013-01-20 21:53:00,
2013-01-20 17:03:00,42.0,29.0,29.50,South,190,7.0,16.0,60,0.00,,,0.01,,2013-01-20 22:03:00,
2013-01-20 17:13:00,42.0,29.0,29.50,South,190,7.0,16.0,60,0.00,,,0.01,,2013-01-20 22:13:00,
2013-01-20 17:23:00,41.0,28.0,29.51,South,190,7.0,14.0,60,0.00,,,0.01,,2013-01-20 22:23:00,
2013-01-20 17:33:00,40.0,28.0,29.52,South,190,6.0,12.0,61,0.00,,,0.01,,2013-01-20 22:33:00,
2013-01-20 17:43:00,40.0,28.0,29.52,South,190,6.0,12.0,61,0.00,,,0.01,,2013-01-20 22:43:00,
2013-01-20 17:52:00,40.0,28.0,29.52,South,190,7.0,13.0,62,0.00,,,0.01,,2013-01-20 22:52:00,
2013-01-20 18:03:00,40.0,27.0,29.53,South,190,4.0,11.0,60,0.00,,,0.01,,2013-01-20 23:03:00,
2013-01-20 18:13:00,40.0,27.0,29.53,South,190,4.0,11.0,60,0.00,,,0.01,,2013-01-20 23:13:00,
2013-01-20 18:23:00,39.0,26.0,29.54,South,190,7.0,12.0,59,0.00,,,0.01,,2013-01-20 23:23:00,
2013-01-20 18:33:00,40.0,23.0,29.55,South,190,12.0,19.0,50,0.00,,,0.01,,2013-01-20 23:33:00,
2013-01-20 18:43:00,40.0,23.0,29.55,South,190,12.0,19.0,50,0.00,,,0.01,,2013-01-20 23:43:00,
2013-01-20 18:53:00,40.0,21.0,29.56,South,190,11.0,24.0,47,0.00,,,0.01,,2013-01-20 23:53:00,
2013-01-20 19:03:00,40.0,20.0,29.58,South,190,13.0,21.0,44,0.00,,,0.01,,2013-01-21 00:03:00,
2013-01-20 19:13:00,40.0,20.0,29.58,South,190,13.0,21.0,44,0.00,,,0.01,,2013-01-21 00:13:00,
2013-01-20 19:23:00,39.0,20.0,29.58,South,190,14.0,20.0,46,0.00,,,0.01,,2013-01-21 00:23:00,
2013-01-20 19:33:00,38.0,19.0,29.60,South,190,16.0,22.0,46,0.00,,,0.01,,2013-01-21 00:33:00,
2013-01-20 19:43:00,38.0,19.0,29.60,South,190,16.0,22.0,46,0.00,,,0.01,,2013-01-21 00:43:00,
2013-01-20 19:53:00,38.0,19.0,29.61,South,190,10.0,21.0,45,0.00,,,0.01,,2013-01-21 00:53:00,
2013-01-20 20:03:00,36.0,18.0,29.61,South,190,15.0,22.0,47,0.00,,,0.01,,2013-01-21 01:03:00,
2013-01-20 20:13:00,36.0,18.0,29.61,South,190,15.0,22.0,47,0.00,,,0.01,,2013-01-21 01:13:00,
2013-01-20 20:23:00,36.0,18.0,29.61,South,190,8.0,20.0,48,0.00,,,0.01,,2013-01-21 01:23:00,
2013-01-20 20:33:00,35.0,18.0,29.63,South,190,9.0,21.0,50,0.00,,,0.01,,2013-01-21 01:33:00,
2013-01-20 20:43:00,35.0,18.0,29.63,South,190,9.0,21.0,50,0.00,,,0.01,,2013-01-21 01:43:00,
2013-01-20 20:53:00,34.0,16.0,29.64,South,190,11.0,19.0,48,0.00,,,0.01,,2013-01-21 01:53:00,
2013-01-20 21:03:00,34.0,16.0,29.65,South,190,12.0,21.0,47,0.00,,,0.01,,2013-01-21 02:03:00,
2013-01-20 21:13:00,34.0,16.0,29.65,South,190,12.0,21.0,47,0.00,,,0.01,,2013-01-21 02:13:00,
2013-01-20 21:23:00,33.0,14.0,29.66,South,190,13.0,18.0,45,0.00,,,0.01,,2013-01-21 02:23:00,
2013-01-20 21:33:00,33.0,14.0,29.67,South,190,11.0,26.0,45,0.00,,,0.01,,2013-01-21 02:33:00,
2013-01-20 21:43:00,33.0,14.0,29.67,South,190,11.0,26.0,45,0.00,,,0.01,,2013-01-21 02:43:00,
2013-01-20 21:53:00,32.0,13.0,29.68,South,190,10.0,26.0,44,0.00,,,0.01,,2013-01-21 02:53:00,
2013-01-20 22:03:00,31.0,17.0,29.70,South,190,5.0,15.0,56,0.00,,,0.01,,2013-01-21 03:03:00,
2013-01-20 22:13:00,31.0,17.0,29.70,South,190,5.0,15.0,56,0.00,,,0.01,,2013-01-21 03:13:00,
2013-01-20 22:23:00,31.0,17.0,29.70,South,190,5.0,15.0,56,0.00,,,0.01,,2013-01-21 03:23:00,
2013-01-20 22:33:00,28.0,14.0,29.73,South,190,6.0,21.0,55,0.00,,,0.01,,2013-01-21 03:33:00,
2013-01-20 22:43:00,28.0,14.0,29.73,South,190,6.0,21.0,55,0.00,,,0.01,,2013-01-21 03:43:00,
2013-01-20 22:54:00,27.0,12.0,29.74,South,190,7.0,16.0,53,0.00,,,0.01,,2013-01-21 03:54:00,
2013-01-20 23:03:00,26.0,10.0,29.74,South,190,6.0,15.0,50,0.00,,,0.01,,2013-01-21 04:03:00,
2013-01-20 23:13:00,26.0,10.0,29.74,South,190,6.0,15.0,50,0.00,,,0.01,,2013-01-21 04:13:00,
2013-01-20 23:23:00,26.0,9.0,29.75,South,190,9.0,25.0,49,0.00,,,0.01,,2013-01-21 04:23:00,
2013-01-20 23:33:00,25.0,8.0,29.76,South,190,9.0,23.0,47,0.00,,,0.01,,2013-01-21 04:33:00,
2013-01-20 23:43:00,25.0,8.0,29.76,South,190,9.0,23.0,47,0.00,,,0.01,,2013-01-21 04:43:00,
2013-01-20 23:53:00,24.0,7.0,29.77,South,190,11.0,19.0,47,0.00,,,0.01,,2013-01-21 04:53:00,